Phnom Penh, Kambodja

04:26 PM +07 on November 22, 2017 (GMT +0700)
Mekong Modelling Chaktomuk Phnom Penh | | Change Station

Elev 36 ft 11.56 °N, 104.94 °E | Updated 42 seconds ago

Växlande molnighet
Växlande molnighet
89.4 °F
Feels Like 105 °F
N
2.0
Vind Växlande Vind from O/NO
Gusts 2.0 miles/tim

Idag
High -- | Low -- °F
--% Chance of Precip.
Yesterday
High -- | Low -- °F
Precip. -- tum
Lufttryck 29.68 tum
Sikt 6.2 miles
Molnigt Växlande molnighet 1700 ft
Värmeindex 105 °F
Daggpunkt 79 °F
Luftfuktighet 71%
Rainfall 0.30 tum
Snow Depth Not available.
5:59 AM 5:32 PM
Första kvarteret, 13% visible
METAR VDPP 220900Z VRB03KT 9999 SCT017 32/25 Q1005
Lufttryck 29.68 tum
Sikt 6.2 miles
Molnigt Växlande molnighet 1700 ft
Värmeindex 105 °F
Daggpunkt 79 °F
Luftfuktighet 71%
Rainfall 0.30 tum
Snow Depth Not available.
5:59 AM 5:32 PM
Första kvarteret, 13% visible
METAR VDPP 220900Z VRB03KT 9999 SCT017 32/25 Q1005

Get Severe Weather Alerts

Thanks for signing up!

Be on the lookout for a verification email in your inbox.

You'll start receiving the daily forecast at 6 AM.

×

10-Day Weather Forecast

No radar image for this location.
×

Almanac

Astronomi

Nov. 22, 2017 Rise Set
Actual Time
Civil Twilight
Nautical Twilight
Astronomical Twilight
Månen
Length Of Visible Light
Dagens längd
Tomorrow will be .
, % of the Moon is Illuminated

Today's Extremes

Country Highs Country Lows

Community

WunderPhotos

Category 6

Welcome to Category 6. This is the collective home for Weather Underground's featured writeups by Dr. Jeff Masters (right), Bob Henson (left), Chris Burt, and other regular contributors.

Nearby

Air Quality

  Air Quality AQ Index Pollutant
Not available.

Snödjup

Station Depth Elevation

Earthquake Activity

Stad Distance Mag. Time & Date
Minimum magnitude displayed is 2.5.

Coastal Water Temperatures

Plats Temperatur

Stations

Nearby Weather Stations

Station Location Temp Vindavkylning Daggpunkt Luftfuktighet Vind Precip. Elev Uppdaterad Type